Rogers City, MI

5:31 PM EDT on September 01, 2015 (GMT -0400)
West Erie St. | | Change Station
CLOSE
Current Station
Personal Weather Station
Location: Rogers City, MI
Elevation: 640 ft
Nearby Weather Stations

Elev 640 ft 45.42 °N, 83.82 °W | Updated 2 seconds ago

Scattered Clouds
Scattered Clouds
78.5 °F
Feels Like 81 °F
N
0.0
Wind Variable Wind from North
Gusts 0.0 mph

Today
High -- | Low -- °F
--% Chance of Precip.
Yesterday
High -- | Low -- °F
Precip. -- in
6:56 AM 8:13 PM
Waning Gibbous, 86% visible
Pressure 29.97 in
Visibility 10.0 miles
Clouds Scattered Clouds 4800 ft
Scattered Clouds 6000 ft
Heat Index 81 °F
Dew Point 68 °F
Humidity 70%
Rainfall 0.00 in
Snow Depth Not available.
UV 3 out of 12
Pollen 10.40 out of 12
Air Quality Not available.
Flu Activity Not available.
METAR KPZQ 012115Z AUTO 36005KT 10SM SCT048 SCT060 28/20 A2997 RMK AO2 T02810202
Pressure 29.97 in
Visibility 10.0 miles
Clouds Scattered Clouds 4800 ft
Scattered Clouds 6000 ft
Heat Index 81 °F
Dew Point 68 °F
Humidity 70%
Rainfall 0.00 in
Snow Depth Not available.
UV 3 out of 12
Pollen 10.40 out of 12
Air Quality Not available.
Flu Activity Not available.
METAR KPZQ 012115Z AUTO 36005KT 10SM SCT048 SCT060 28/20 A2997 RMK AO2 T02810202
Nowcast | as of 5:00 PM EDT on September 1, 2015

At 6 PM...mostly clear. Temperature 82. Southeast winds 6 mph. At 8 PM...mostly clear. Temperature 72. Light winds. At 10 PM...partly cloudy. Temperature 67. Light winds. At 12 am...partly cloudy. Areas of fog. Temperature 66. Light winds.

×

10-Day Weather Forecast

×

Almanac

Astronomy

Sep. 01, 2015 Rise Set
Actual Time
Civil Twilight
Nautical Twilight
Astronomical Twilight
Moon
Length of Visible Light
Length of Day
Tomorrow will be .
, % of the Moon is Illuminated

Today's Extremes

State Highs State Lows

Community

WunderPhotos

Upload Photos

1,851,628 photos uploaded!

WunderBlogs® & News

Nearby

Air Quality

  Air Quality AQ Index Pollutant
Not available.

Snow Depth

Station Depth Elevation

Earthquake Activity

City Distance Mag. Time & Date
Minimum magnitude displayed is 2.5.

Coastal Water Temperatures

Place Temperature

Stations

Nearby Weather Stations

Station Location Temp. Windchill Dew Point Humidity Wind Precip. Elev Updated Type